sensor_id;sensor_type;location;lat;lon;timestamp;temperature;humidity
35603;DHT22;21725;50.836;4.368;2023-03-20T00:00:45;9.80;99.90
35603;DHT22;21725;50.836;4.368;2023-03-20T00:03:47;10.10;99.90
35603;DHT22;21725;50.836;4.368;2023-03-20T00:06:48;10.20;99.90
35603;DHT22;21725;50.836;4.368;2023-03-20T00:09:49;10.40;99.90
35603;DHT22;21725;50.836;4.368;2023-03-20T00:12:50;10.50;99.90
35603;DHT22;21725;50.836;4.368;2023-03-20T00:15:51;10.30;99.90
35603;DHT22;21725;50.836;4.368;2023-03-20T00:18:53;9.80;99.90
35603;DHT22;21725;50.836;4.368;2023-03-20T00:21:56;9.70;99.90
35603;DHT22;21725;50.836;4.368;2023-03-20T00:25:00;9.90;99.90
35603;DHT22;21725;50.836;4.368;2023-03-20T00:28:01;10.00;99.90
35603;DHT22;21725;50.836;4.368;2023-03-20T00:31:08;9.90;99.90
35603;DHT22;21725;50.836;4.368;2023-03-20T00:34:15;10.00;99.90
35603;DHT22;21725;50.836;4.368;2023-03-20T00:37:23;10.10;99.90
35603;DHT22;21725;50.836;4.368;2023-03-20T00:40:29;10.50;99.90
35603;DHT22;21725;50.836;4.368;2023-03-20T00:43:31;10.60;99.90
35603;DHT22;21725;50.836;4.368;2023-03-20T00:46:35;10.80;99.90
35603;DHT22;21725;50.836;4.368;2023-03-20T00:49:37;10.50;99.90
35603;DHT22;21725;50.836;4.368;2023-03-20T00:52:38;10.30;99.90
35603;DHT22;21725;50.836;4.368;2023-03-20T00:55:39;9.90;99.90
35603;DHT22;21725;50.836;4.368;2023-03-20T00:58:40;10.00;99.90
35603;DHT22;21725;50.836;4.368;2023-03-20T01:01:41;10.00;99.90
35603;DHT22;21725;50.836;4.368;2023-03-20T01:04:45;10.00;99.90
35603;DHT22;21725;50.836;4.368;2023-03-20T01:07:48;10.20;99.90
35603;DHT22;21725;50.836;4.368;2023-03-20T01:10:53;10.30;99.90
35603;DHT22;21725;50.836;4.368;2023-03-20T01:13:55;9.90;99.90
35603;DHT22;21725;50.836;4.368;2023-03-20T01:16:56;9.60;99.90
35603;DHT22;21725;50.836;4.368;2023-03-20T01:20:00;9.40;99.90
35603;DHT22;21725;50.836;4.368;2023-03-20T01:23:04;9.40;99.90
35603;DHT22;21725;50.836;4.368;2023-03-20T01:29:36;9.60;99.90
35603;DHT22;21725;50.836;4.368;2023-03-20T01:32:36;10.00;99.90
35603;DHT22;21725;50.836;4.368;2023-03-20T01:35:37;10.30;99.90
35603;DHT22;21725;50.836;4.368;2023-03-20T01:38:39;10.60;99.90
35603;DHT22;21725;50.836;4.368;2023-03-20T01:41:40;10.70;99.90
35603;DHT22;21725;50.836;4.368;2023-03-20T01:44:41;10.70;99.90
35603;DHT22;21725;50.836;4.368;2023-03-20T01:47:42;10.70;99.90
35603;DHT22;21725;50.836;4.368;2023-03-20T01:50:45;10.30;99.90
35603;DHT22;21725;50.836;4.368;2023-03-20T01:53:51;9.80;99.90
35603;DHT22;21725;50.836;4.368;2023-03-20T01:57:17;9.30;99.90
35603;DHT22;21725;50.836;4.368;2023-03-20T02:00:20;9.20;99.90
35603;DHT22;21725;50.836;4.368;2023-03-20T02:03:24;8.90;99.90
35603;DHT22;21725;50.836;4.368;2023-03-20T02:06:25;8.80;99.90
35603;DHT22;21725;50.836;4.368;2023-03-20T02:09:28;8.80;99.90
35603;DHT22;21725;50.836;4.368;2023-03-20T02:12:29;8.90;99.90
35603;DHT22;21725;50.836;4.368;2023-03-20T02:18:58;8.80;99.90
35603;DHT22;21725;50.836;4.368;2023-03-20T02:22:27;9.00;99.90
35603;DHT22;21725;50.836;4.368;2023-03-20T02:42:35;9.20;99.90
35603;DHT22;21725;50.836;4.368;2023-03-20T02:45:47;9.20;99.90
35603;DHT22;21725;50.836;4.368;2023-03-20T02:49:13;9.20;99.90
35603;DHT22;21725;50.836;4.368;2023-03-20T02:52:55;9.40;99.90
35603;DHT22;21725;50.836;4.368;2023-03-20T02:56:30;9.70;99.90
35603;DHT22;21725;50.836;4.368;2023-03-20T02:59:56;9.90;99.90
35603;DHT22;21725;50.836;4.368;2023-03-20T03:06:23;10.00;99.90
35603;DHT22;21725;50.836;4.368;2023-03-20T03:09:44;9.80;99.90
35603;DHT22;21725;50.836;4.368;2023-03-20T03:12:48;10.10;99.90
35603;DHT22;21725;50.836;4.368;2023-03-20T03:15:54;10.10;99.90
35603;DHT22;21725;50.836;4.368;2023-03-20T03:19:35;9.60;99.90
35603;DHT22;21725;50.836;4.368;2023-03-20T03:22:29;9.50;99.90
35603;DHT22;21725;50.836;4.368;2023-03-20T03:25:37;9.60;99.90
35603;DHT22;21725;50.836;4.368;2023-03-20T03:28:42;9.80;99.90
35603;DHT22;21725;50.836;4.368;2023-03-20T03:31:45;9.90;99.90
35603;DHT22;21725;50.836;4.368;2023-03-20T03:34:46;9.90;99.90
35603;DHT22;21725;50.836;4.368;2023-03-20T03:38:00;9.40;99.90
35603;DHT22;21725;50.836;4.368;2023-03-20T03:47:50;8.90;99.90
35603;DHT22;21725;50.836;4.368;2023-03-20T03:50:56;8.60;99.90
35603;DHT22;21725;50.836;4.368;2023-03-20T03:54:14;8.90;99.90
35603;DHT22;21725;50.836;4.368;2023-03-20T03:57:26;8.80;99.90
35603;DHT22;21725;50.836;4.368;2023-03-20T04:00:28;8.70;99.90
35603;DHT22;21725;50.836;4.368;2023-03-20T04:03:35;8.60;99.90
35603;DHT22;21725;50.836;4.368;2023-03-20T04:06:40;8.70;99.90
35603;DHT22;21725;50.836;4.368;2023-03-20T04:09:41;8.70;99.90
35603;DHT22;21725;50.836;4.368;2023-03-20T04:12:44;8.70;99.90
35603;DHT22;21725;50.836;4.368;2023-03-20T04:15:44;8.80;99.90
35603;DHT22;21725;50.836;4.368;2023-03-20T04:18:45;8.80;99.90
35603;DHT22;21725;50.836;4.368;2023-03-20T04:21:46;8.80;99.90
35603;DHT22;21725;50.836;4.368;2023-03-20T04:24:49;8.80;99.90
35603;DHT22;21725;50.836;4.368;2023-03-20T04:27:50;8.90;99.90
35603;DHT22;21725;50.836;4.368;2023-03-20T04:30:56;9.00;99.90
35603;DHT22;21725;50.836;4.368;2023-03-20T04:33:58;8.80;99.90
35603;DHT22;21725;50.836;4.368;2023-03-20T04:37:01;8.50;99.90
35603;DHT22;21725;50.836;4.368;2023-03-20T04:40:05;8.40;99.90
35603;DHT22;21725;50.836;4.368;2023-03-20T04:43:07;8.40;99.90
35603;DHT22;21725;50.836;4.368;2023-03-20T04:46:08;8.30;99.90
35603;DHT22;21725;50.836;4.368;2023-03-20T04:49:09;8.30;99.90
35603;DHT22;21725;50.836;4.368;2023-03-20T04:52:09;8.40;99.90
35603;DHT22;21725;50.836;4.368;2023-03-20T04:55:10;8.60;99.90
35603;DHT22;21725;50.836;4.368;2023-03-20T04:58:11;8.60;99.90
35603;DHT22;21725;50.836;4.368;2023-03-20T05:01:12;8.60;99.90
35603;DHT22;21725;50.836;4.368;2023-03-20T05:26:44;7.60;99.90
35603;DHT22;21725;50.836;4.368;2023-03-20T05:29:45;7.50;99.90
35603;DHT22;21725;50.836;4.368;2023-03-20T05:32:49;7.70;99.90
35603;DHT22;21725;50.836;4.368;2023-03-20T05:35:52;8.00;99.90
35603;DHT22;21725;50.836;4.368;2023-03-20T05:38:53;8.20;99.90
35603;DHT22;21725;50.836;4.368;2023-03-20T05:41:56;8.50;99.90
35603;DHT22;21725;50.836;4.368;2023-03-20T05:44:57;8.70;99.90
35603;DHT22;21725;50.836;4.368;2023-03-20T05:48:00;8.80;99.90
35603;DHT22;21725;50.836;4.368;2023-03-20T05:51:01;8.90;99.90
35603;DHT22;21725;50.836;4.368;2023-03-20T05:54:02;8.80;99.90
35603;DHT22;21725;50.836;4.368;2023-03-20T05:57:03;8.60;99.90
35603;DHT22;21725;50.836;4.368;2023-03-20T06:00:13;8.50;99.90
35603;DHT22;21725;50.836;4.368;2023-03-20T06:03:14;8.20;99.90
35603;DHT22;21725;50.836;4.368;2023-03-20T06:06:18;8.20;99.90
35603;DHT22;21725;50.836;4.368;2023-03-20T06:09:19;8.40;99.90
35603;DHT22;21725;50.836;4.368;2023-03-20T06:12:20;8.50;99.90
35603;DHT22;21725;50.836;4.368;2023-03-20T06:15:22;8.30;99.90
35603;DHT22;21725;50.836;4.368;2023-03-20T06:18:23;8.40;99.90
35603;DHT22;21725;50.836;4.368;2023-03-20T06:21:24;8.20;99.90
35603;DHT22;21725;50.836;4.368;2023-03-20T06:24:25;8.00;99.90
35603;DHT22;21725;50.836;4.368;2023-03-20T06:27:26;7.80;99.90
35603;DHT22;21725;50.836;4.368;2023-03-20T06:30:26;7.70;99.90
35603;DHT22;21725;50.836;4.368;2023-03-20T06:33:27;7.60;99.90
35603;DHT22;21725;50.836;4.368;2023-03-20T06:36:28;7.60;99.90
35603;DHT22;21725;50.836;4.368;2023-03-20T06:39:29;7.80;99.90
35603;DHT22;21725;50.836;4.368;2023-03-20T06:42:30;7.90;99.90
35603;DHT22;21725;50.836;4.368;2023-03-20T06:45:31;8.00;99.90
35603;DHT22;21725;50.836;4.368;2023-03-20T06:48:32;8.10;99.90
35603;DHT22;21725;50.836;4.368;2023-03-20T06:51:33;8.00;99.90
35603;DHT22;21725;50.836;4.368;2023-03-20T06:54:34;8.10;99.90
35603;DHT22;21725;50.836;4.368;2023-03-20T06:57:37;8.30;99.90
35603;DHT22;21725;50.836;4.368;2023-03-20T07:00:40;8.40;99.90
35603;DHT22;21725;50.836;4.368;2023-03-20T07:03:42;8.60;99.90
35603;DHT22;21725;50.836;4.368;2023-03-20T07:06:45;8.10;99.90
35603;DHT22;21725;50.836;4.368;2023-03-20T07:09:45;8.30;99.90
35603;DHT22;21725;50.836;4.368;2023-03-20T07:12:46;8.40;99.90
35603;DHT22;21725;50.836;4.368;2023-03-20T07:15:50;8.40;99.90
35603;DHT22;21725;50.836;4.368;2023-03-20T07:18:53;8.50;99.90
35603;DHT22;21725;50.836;4.368;2023-03-20T07:22:05;8.70;99.90
35603;DHT22;21725;50.836;4.368;2023-03-20T07:25:08;8.80;99.90
35603;DHT22;21725;50.836;4.368;2023-03-20T07:28:35;9.10;99.90
35603;DHT22;21725;50.836;4.368;2023-03-20T07:31:38;9.40;99.90
35603;DHT22;21725;50.836;4.368;2023-03-20T07:34:38;9.60;99.90
35603;DHT22;21725;50.836;4.368;2023-03-20T07:37:47;9.50;99.90
35603;DHT22;21725;50.836;4.368;2023-03-20T07:40:53;9.00;99.90
35603;DHT22;21725;50.836;4.368;2023-03-20T07:43:54;8.80;99.90
35603;DHT22;21725;50.836;4.368;2023-03-20T07:46:55;8.90;99.90
35603;DHT22;21725;50.836;4.368;2023-03-20T07:50:01;8.70;99.90
35603;DHT22;21725;50.836;4.368;2023-03-20T07:53:06;8.80;99.90
35603;DHT22;21725;50.836;4.368;2023-03-20T07:56:08;8.70;99.90
35603;DHT22;21725;50.836;4.368;2023-03-20T07:59:08;8.90;99.90
35603;DHT22;21725;50.836;4.368;2023-03-20T08:02:16;9.20;99.90
35603;DHT22;21725;50.836;4.368;2023-03-20T08:05:17;9.40;99.90
35603;DHT22;21725;50.836;4.368;2023-03-20T08:08:18;9.40;99.90
35603;DHT22;21725;50.836;4.368;2023-03-20T08:11:25;9.50;99.90
35603;DHT22;21725;50.836;4.368;2023-03-20T08:14:25;9.40;99.90
35603;DHT22;21725;50.836;4.368;2023-03-20T08:17:26;9.00;99.90
35603;DHT22;21725;50.836;4.368;2023-03-20T08:20:27;8.90;99.90
35603;DHT22;21725;50.836;4.368;2023-03-20T08:23:30;8.60;99.90
35603;DHT22;21725;50.836;4.368;2023-03-20T08:26:31;8.40;99.90
35603;DHT22;21725;50.836;4.368;2023-03-20T08:29:32;8.40;99.90
35603;DHT22;21725;50.836;4.368;2023-03-20T08:32:32;8.50;99.90
35603;DHT22;21725;50.836;4.368;2023-03-20T08:35:33;8.80;99.90
35603;DHT22;21725;50.836;4.368;2023-03-20T08:38:34;9.30;99.90
35603;DHT22;21725;50.836;4.368;2023-03-20T08:41:36;9.30;99.90
35603;DHT22;21725;50.836;4.368;2023-03-20T08:44:44;9.10;99.90
35603;DHT22;21725;50.836;4.368;2023-03-20T08:47:48;9.00;99.90
35603;DHT22;21725;50.836;4.368;2023-03-20T08:50:51;9.00;99.90
35603;DHT22;21725;50.836;4.368;2023-03-20T08:53:51;8.90;99.90
35603;DHT22;21725;50.836;4.368;2023-03-20T08:56:52;9.10;99.90
35603;DHT22;21725;50.836;4.368;2023-03-20T09:00:03;9.20;99.90
35603;DHT22;21725;50.836;4.368;2023-03-20T09:03:23;9.30;99.90
35603;DHT22;21725;50.836;4.368;2023-03-20T09:06:26;9.40;99.90
35603;DHT22;21725;50.836;4.368;2023-03-20T09:09:45;9.30;99.90
35603;DHT22;21725;50.836;4.368;2023-03-20T09:13:10;9.20;99.90
35603;DHT22;21725;50.836;4.368;2023-03-20T09:16:14;9.30;99.90
35603;DHT22;21725;50.836;4.368;2023-03-20T09:19:34;9.40;99.90
35603;DHT22;21725;50.836;4.368;2023-03-20T09:22:45;9.30;99.90
35603;DHT22;21725;50.836;4.368;2023-03-20T09:25:51;9.30;99.90
35603;DHT22;21725;50.836;4.368;2023-03-20T09:28:52;9.50;99.90
35603;DHT22;21725;50.836;4.368;2023-03-20T09:31:53;9.70;99.90
35603;DHT22;21725;50.836;4.368;2023-03-20T09:34:54;9.90;99.90
35603;DHT22;21725;50.836;4.368;2023-03-20T09:37:55;9.60;99.90
35603;DHT22;21725;50.836;4.368;2023-03-20T09:41:04;9.60;99.90
35603;DHT22;21725;50.836;4.368;2023-03-20T09:47:21;9.90;99.90
35603;DHT22;21725;50.836;4.368;2023-03-20T09:54:01;10.50;99.90
35603;DHT22;21725;50.836;4.368;2023-03-20T10:00:45;11.00;99.90
35603;DHT22;21725;50.836;4.368;2023-03-20T10:04:00;11.10;99.90
35603;DHT22;21725;50.836;4.368;2023-03-20T10:07:04;11.20;99.90
35603;DHT22;21725;50.836;4.368;2023-03-20T10:10:12;11.00;99.90
35603;DHT22;21725;50.836;4.368;2023-03-20T10:26:42;10.70;99.90
35603;DHT22;21725;50.836;4.368;2023-03-20T10:40:14;11.40;99.90
35603;DHT22;21725;50.836;4.368;2023-03-20T10:43:32;11.50;99.90
35603;DHT22;21725;50.836;4.368;2023-03-20T10:46:50;11.70;99.90
35603;DHT22;21725;50.836;4.368;2023-03-20T10:53:56;11.90;99.90
35603;DHT22;21725;50.836;4.368;2023-03-20T10:57:32;12.00;99.90
35603;DHT22;21725;50.836;4.368;2023-03-20T11:00:55;12.10;99.90
35603;DHT22;21725;50.836;4.368;2023-03-20T11:25:47;11.30;99.90
35603;DHT22;21725;50.836;4.368;2023-03-20T11:29:21;11.30;99.90
35603;DHT22;21725;50.836;4.368;2023-03-20T11:32:39;11.30;99.90
35603;DHT22;21725;50.836;4.368;2023-03-20T11:35:52;11.20;99.90
35603;DHT22;21725;50.836;4.368;2023-03-20T11:42:25;11.40;99.90
35603;DHT22;21725;50.836;4.368;2023-03-20T11:49:25;11.40;99.90
35603;DHT22;21725;50.836;4.368;2023-03-20T11:52:33;11.50;99.90
35603;DHT22;21725;50.836;4.368;2023-03-20T11:55:38;11.40;99.90
35603;DHT22;21725;50.836;4.368;2023-03-20T11:59:16;11.40;99.90
35603;DHT22;21725;50.836;4.368;2023-03-20T12:02:39;11.50;99.90
35603;DHT22;21725;50.836;4.368;2023-03-20T12:05:48;11.60;99.90
35603;DHT22;21725;50.836;4.368;2023-03-20T12:13:10;12.20;99.90
35603;DHT22;21725;50.836;4.368;2023-03-20T12:16:29;12.60;99.90
35603;DHT22;21725;50.836;4.368;2023-03-20T12:19:34;13.10;99.60
35603;DHT22;21725;50.836;4.368;2023-03-20T12:22:46;13.10;99.20
35603;DHT22;21725;50.836;4.368;2023-03-20T12:33:15;13.40;98.80
35603;DHT22;21725;50.836;4.368;2023-03-20T12:36:53;13.70;98.60
35603;DHT22;21725;50.836;4.368;2023-03-20T12:40:38;13.90;98.30
35603;DHT22;21725;50.836;4.368;2023-03-20T12:47:32;13.80;98.40
35603;DHT22;21725;50.836;4.368;2023-03-20T12:51:15;13.50;98.80
35603;DHT22;21725;50.836;4.368;2023-03-20T13:01:29;13.50;99.00
35603;DHT22;21725;50.836;4.368;2023-03-20T13:08:00;12.90;99.90
35603;DHT22;21725;50.836;4.368;2023-03-20T13:11:19;12.80;99.90
35603;DHT22;21725;50.836;4.368;2023-03-20T13:14:43;12.90;99.90
35603;DHT22;21725;50.836;4.368;2023-03-20T13:17:59;12.70;99.90
35603;DHT22;21725;50.836;4.368;2023-03-20T13:21:12;12.70;99.90
35603;DHT22;21725;50.836;4.368;2023-03-20T13:24:58;12.80;99.90
35603;DHT22;21725;50.836;4.368;2023-03-20T13:28:34;12.90;99.90
35603;DHT22;21725;50.836;4.368;2023-03-20T13:32:26;12.90;99.90
35603;DHT22;21725;50.836;4.368;2023-03-20T13:38:27;12.60;99.90
35603;DHT22;21725;50.836;4.368;2023-03-20T13:41:33;12.60;99.90
35603;DHT22;21725;50.836;4.368;2023-03-20T13:44:35;12.70;99.90
35603;DHT22;21725;50.836;4.368;2023-03-20T13:47:37;12.50;99.90
35603;DHT22;21725;50.836;4.368;2023-03-20T14:00:51;13.20;99.90
35603;DHT22;21725;50.836;4.368;2023-03-20T14:03:57;12.70;99.90
35603;DHT22;21725;50.836;4.368;2023-03-20T14:06:59;12.50;99.90
35603;DHT22;21725;50.836;4.368;2023-03-20T14:13:25;12.40;99.90
35603;DHT22;21725;50.836;4.368;2023-03-20T14:16:27;12.20;99.90
35603;DHT22;21725;50.836;4.368;2023-03-20T14:19:51;12.30;99.90
35603;DHT22;21725;50.836;4.368;2023-03-20T14:22:56;12.60;99.90
35603;DHT22;21725;50.836;4.368;2023-03-20T14:26:03;12.60;99.90
35603;DHT22;21725;50.836;4.368;2023-03-20T14:35:24;12.30;99.90
35603;DHT22;21725;50.836;4.368;2023-03-20T14:45:42;12.50;99.90
35603;DHT22;21725;50.836;4.368;2023-03-20T14:48:49;12.60;99.90
35603;DHT22;21725;50.836;4.368;2023-03-20T14:52:08;12.60;99.90
35603;DHT22;21725;50.836;4.368;2023-03-20T15:01:58;12.70;99.90
35603;DHT22;21725;50.836;4.368;2023-03-20T15:05:05;13.00;99.90
35603;DHT22;21725;50.836;4.368;2023-03-20T15:08:28;13.20;99.90
35603;DHT22;21725;50.836;4.368;2023-03-20T15:11:31;13.10;99.90
35603;DHT22;21725;50.836;4.368;2023-03-20T15:18:15;12.80;99.90
35603;DHT22;21725;50.836;4.368;2023-03-20T15:24:32;12.50;99.90
35603;DHT22;21725;50.836;4.368;2023-03-20T15:27:46;12.40;99.90
35603;DHT22;21725;50.836;4.368;2023-03-20T15:31:00;12.70;99.90
35603;DHT22;21725;50.836;4.368;2023-03-20T15:34:36;12.50;99.90
35603;DHT22;21725;50.836;4.368;2023-03-20T15:37:46;12.70;99.90
35603;DHT22;21725;50.836;4.368;2023-03-20T15:40:50;12.60;99.90
35603;DHT22;21725;50.836;4.368;2023-03-20T15:44:11;12.70;99.90
35603;DHT22;21725;50.836;4.368;2023-03-20T15:47:17;12.70;99.90
35603;DHT22;21725;50.836;4.368;2023-03-20T15:50:24;12.60;99.90
35603;DHT22;21725;50.836;4.368;2023-03-20T15:53:36;12.80;99.90
35603;DHT22;21725;50.836;4.368;2023-03-20T15:56:39;12.80;99.90
35603;DHT22;21725;50.836;4.368;2023-03-20T15:59:42;12.80;99.90
35603;DHT22;21725;50.836;4.368;2023-03-20T16:03:00;12.70;99.90
35603;DHT22;21725;50.836;4.368;2023-03-20T16:06:07;12.60;99.90
35603;DHT22;21725;50.836;4.368;2023-03-20T16:09:13;12.60;99.90
35603;DHT22;21725;50.836;4.368;2023-03-20T16:12:17;12.60;99.90
35603;DHT22;21725;50.836;4.368;2023-03-20T16:15:23;12.50;99.90
35603;DHT22;21725;50.836;4.368;2023-03-20T16:18:38;12.10;99.90
35603;DHT22;21725;50.836;4.368;2023-03-20T16:22:11;12.90;99.90
35603;DHT22;21725;50.836;4.368;2023-03-20T16:25:17;12.40;99.90
35603;DHT22;21725;50.836;4.368;2023-03-20T16:28:21;12.50;99.90
35603;DHT22;21725;50.836;4.368;2023-03-20T16:31:30;12.40;99.90
35603;DHT22;21725;50.836;4.368;2023-03-20T16:34:37;12.30;99.90
35603;DHT22;21725;50.836;4.368;2023-03-20T16:37:42;12.30;99.90
35603;DHT22;21725;50.836;4.368;2023-03-20T16:40:55;12.30;99.90
35603;DHT22;21725;50.836;4.368;2023-03-20T16:44:10;12.40;99.90
35603;DHT22;21725;50.836;4.368;2023-03-20T16:47:32;12.60;99.90
35603;DHT22;21725;50.836;4.368;2023-03-20T16:50:37;12.80;99.90
35603;DHT22;21725;50.836;4.368;2023-03-20T16:53:53;12.60;99.90
35603;DHT22;21725;50.836;4.368;2023-03-20T16:56:56;12.70;99.90
35603;DHT22;21725;50.836;4.368;2023-03-20T17:00:22;12.50;99.90
35603;DHT22;21725;50.836;4.368;2023-03-20T17:25:31;11.60;99.90
35603;DHT22;21725;50.836;4.368;2023-03-20T17:32:18;11.50;99.90
35603;DHT22;21725;50.836;4.368;2023-03-20T17:35:28;11.70;99.90
35603;DHT22;21725;50.836;4.368;2023-03-20T17:38:46;11.90;99.90
35603;DHT22;21725;50.836;4.368;2023-03-20T17:41:52;11.90;99.90
35603;DHT22;21725;50.836;4.368;2023-03-20T17:44:55;12.00;99.90
35603;DHT22;21725;50.836;4.368;2023-03-20T17:51:38;12.10;99.90
35603;DHT22;21725;50.836;4.368;2023-03-20T17:54:46;12.10;99.90
35603;DHT22;21725;50.836;4.368;2023-03-20T17:57:49;12.00;99.90
35603;DHT22;21725;50.836;4.368;2023-03-20T18:01:01;12.10;99.90
35603;DHT22;21725;50.836;4.368;2023-03-20T18:04:13;12.10;99.90
35603;DHT22;21725;50.836;4.368;2023-03-20T18:07:17;12.00;99.90
35603;DHT22;21725;50.836;4.368;2023-03-20T18:10:27;12.10;99.90
35603;DHT22;21725;50.836;4.368;2023-03-20T18:13:31;12.30;99.90
35603;DHT22;21725;50.836;4.368;2023-03-20T18:16:35;12.30;99.90
35603;DHT22;21725;50.836;4.368;2023-03-20T18:19:39;12.10;99.90
35603;DHT22;21725;50.836;4.368;2023-03-20T18:22:48;12.20;99.90
35603;DHT22;21725;50.836;4.368;2023-03-20T18:25:52;12.50;99.90
35603;DHT22;21725;50.836;4.368;2023-03-20T18:28:54;12.70;99.90
35603;DHT22;21725;50.836;4.368;2023-03-20T18:31:58;12.80;99.90
35603;DHT22;21725;50.836;4.368;2023-03-20T18:35:02;13.00;99.90
35603;DHT22;21725;50.836;4.368;2023-03-20T18:38:03;13.40;99.90
35603;DHT22;21725;50.836;4.368;2023-03-20T18:41:06;13.60;99.90
35603;DHT22;21725;50.836;4.368;2023-03-20T18:44:08;13.10;99.90
35603;DHT22;21725;50.836;4.368;2023-03-20T18:47:09;12.80;99.90
35603;DHT22;21725;50.836;4.368;2023-03-20T18:53:27;12.80;99.90
35603;DHT22;21725;50.836;4.368;2023-03-20T18:56:28;12.70;99.90
35603;DHT22;21725;50.836;4.368;2023-03-20T18:59:29;12.70;99.90
35603;DHT22;21725;50.836;4.368;2023-03-20T19:02:32;12.80;99.90
35603;DHT22;21725;50.836;4.368;2023-03-20T19:05:38;12.90;99.90
35603;DHT22;21725;50.836;4.368;2023-03-20T19:08:39;13.00;99.90
35603;DHT22;21725;50.836;4.368;2023-03-20T19:11:42;12.90;99.90
35603;DHT22;21725;50.836;4.368;2023-03-20T19:14:43;12.80;99.90
35603;DHT22;21725;50.836;4.368;2023-03-20T19:17:44;12.70;99.90
35603;DHT22;21725;50.836;4.368;2023-03-20T19:20:46;12.60;99.90
35603;DHT22;21725;50.836;4.368;2023-03-20T19:23:48;12.70;99.90
35603;DHT22;21725;50.836;4.368;2023-03-20T19:26:48;12.70;99.90
35603;DHT22;21725;50.836;4.368;2023-03-20T19:29:50;12.60;99.90
35603;DHT22;21725;50.836;4.368;2023-03-20T19:32:50;12.60;99.90
35603;DHT22;21725;50.836;4.368;2023-03-20T19:35:51;12.70;99.90
35603;DHT22;21725;50.836;4.368;2023-03-20T19:38:52;12.70;99.90
35603;DHT22;21725;50.836;4.368;2023-03-20T19:41:53;12.90;99.90
35603;DHT22;21725;50.836;4.368;2023-03-20T19:44:53;12.60;99.90
35603;DHT22;21725;50.836;4.368;2023-03-20T19:47:54;12.60;99.90
35603;DHT22;21725;50.836;4.368;2023-03-20T19:50:58;12.70;99.90
35603;DHT22;21725;50.836;4.368;2023-03-20T19:53:59;12.30;99.90
35603;DHT22;21725;50.836;4.368;2023-03-20T19:57:00;12.10;99.90
35603;DHT22;21725;50.836;4.368;2023-03-20T20:00:02;11.90;99.90
35603;DHT22;21725;50.836;4.368;2023-03-20T20:03:05;11.70;99.90
35603;DHT22;21725;50.836;4.368;2023-03-20T20:06:06;11.50;99.90
35603;DHT22;21725;50.836;4.368;2023-03-20T20:09:07;11.40;99.90
35603;DHT22;21725;50.836;4.368;2023-03-20T20:12:08;11.30;99.90
35603;DHT22;21725;50.836;4.368;2023-03-20T20:15:09;11.30;99.90
35603;DHT22;21725;50.836;4.368;2023-03-20T20:18:11;11.30;99.90
35603;DHT22;21725;50.836;4.368;2023-03-20T20:21:12;11.30;99.90
35603;DHT22;21725;50.836;4.368;2023-03-20T20:24:13;11.30;99.90
35603;DHT22;21725;50.836;4.368;2023-03-20T20:27:15;11.40;99.90
35603;DHT22;21725;50.836;4.368;2023-03-20T20:30:19;11.50;99.90
35603;DHT22;21725;50.836;4.368;2023-03-20T20:33:22;11.90;99.90
35603;DHT22;21725;50.836;4.368;2023-03-20T20:36:23;11.60;99.90
35603;DHT22;21725;50.836;4.368;2023-03-20T20:39:27;11.60;99.90
35603;DHT22;21725;50.836;4.368;2023-03-20T20:42:30;11.50;99.90
35603;DHT22;21725;50.836;4.368;2023-03-20T20:45:32;11.50;99.90
35603;DHT22;21725;50.836;4.368;2023-03-20T20:48:34;11.50;99.90
35603;DHT22;21725;50.836;4.368;2023-03-20T20:51:39;11.40;99.90
35603;DHT22;21725;50.836;4.368;2023-03-20T20:54:49;11.40;99.90
35603;DHT22;21725;50.836;4.368;2023-03-20T20:57:51;11.50;99.90
35603;DHT22;21725;50.836;4.368;2023-03-20T21:01:04;11.50;99.90
35603;DHT22;21725;50.836;4.368;2023-03-20T21:04:05;11.30;99.90
35603;DHT22;21725;50.836;4.368;2023-03-20T21:07:08;11.30;99.90
35603;DHT22;21725;50.836;4.368;2023-03-20T21:10:13;11.20;99.90
35603;DHT22;21725;50.836;4.368;2023-03-20T21:13:30;11.20;99.90
35603;DHT22;21725;50.836;4.368;2023-03-20T21:16:57;11.20;99.90
35603;DHT22;21725;50.836;4.368;2023-03-20T21:20:18;11.20;99.90
35603;DHT22;21725;50.836;4.368;2023-03-20T21:23:23;11.20;99.90
35603;DHT22;21725;50.836;4.368;2023-03-20T21:26:25;11.40;99.90
35603;DHT22;21725;50.836;4.368;2023-03-20T21:29:26;11.50;99.90
35603;DHT22;21725;50.836;4.368;2023-03-20T21:32:31;11.20;99.90
35603;DHT22;21725;50.836;4.368;2023-03-20T21:35:39;11.50;99.90
35603;DHT22;21725;50.836;4.368;2023-03-20T21:38:49;11.40;99.90
35603;DHT22;21725;50.836;4.368;2023-03-20T21:41:50;11.30;99.90
35603;DHT22;21725;50.836;4.368;2023-03-20T21:44:53;11.30;99.90
35603;DHT22;21725;50.836;4.368;2023-03-20T21:48:02;11.30;99.90
35603;DHT22;21725;50.836;4.368;2023-03-20T21:51:03;11.60;99.90
35603;DHT22;21725;50.836;4.368;2023-03-20T21:54:05;11.90;99.90
35603;DHT22;21725;50.836;4.368;2023-03-20T21:57:05;11.80;99.90
35603;DHT22;21725;50.836;4.368;2023-03-20T22:00:16;11.80;99.90
35603;DHT22;21725;50.836;4.368;2023-03-20T22:03:17;11.80;99.90
35603;DHT22;21725;50.836;4.368;2023-03-20T22:06:24;11.70;99.90
35603;DHT22;21725;50.836;4.368;2023-03-20T22:09:25;11.70;99.90
35603;DHT22;21725;50.836;4.368;2023-03-20T22:12:27;12.30;99.90
35603;DHT22;21725;50.836;4.368;2023-03-20T22:15:30;12.60;99.90
35603;DHT22;21725;50.836;4.368;2023-03-20T22:18:31;12.90;99.90
35603;DHT22;21725;50.836;4.368;2023-03-20T22:21:34;13.00;99.90
35603;DHT22;21725;50.836;4.368;2023-03-20T22:24:35;13.30;99.90
35603;DHT22;21725;50.836;4.368;2023-03-20T22:27:36;13.60;99.90
35603;DHT22;21725;50.836;4.368;2023-03-20T22:30:40;13.70;99.90
35603;DHT22;21725;50.836;4.368;2023-03-20T22:33:41;13.90;99.90
35603;DHT22;21725;50.836;4.368;2023-03-20T22:36:46;13.90;99.90
35603;DHT22;21725;50.836;4.368;2023-03-20T22:39:47;13.60;99.90
35603;DHT22;21725;50.836;4.368;2023-03-20T22:42:48;13.30;99.90
35603;DHT22;21725;50.836;4.368;2023-03-20T22:45:49;13.40;99.90
35603;DHT22;21725;50.836;4.368;2023-03-20T22:48:52;13.50;99.90
35603;DHT22;21725;50.836;4.368;2023-03-20T22:51:53;13.70;99.90
35603;DHT22;21725;50.836;4.368;2023-03-20T22:54:54;13.50;99.90
35603;DHT22;21725;50.836;4.368;2023-03-20T22:58:00;13.40;99.90
35603;DHT22;21725;50.836;4.368;2023-03-20T23:01:01;13.60;99.90
35603;DHT22;21725;50.836;4.368;2023-03-20T23:26:13;11.40;99.90
35603;DHT22;21725;50.836;4.368;2023-03-20T23:29:15;11.20;99.90
35603;DHT22;21725;50.836;4.368;2023-03-20T23:32:15;11.20;99.90
35603;DHT22;21725;50.836;4.368;2023-03-20T23:35:16;11.40;99.90
35603;DHT22;21725;50.836;4.368;2023-03-20T23:38:18;11.80;99.90
35603;DHT22;21725;50.836;4.368;2023-03-20T23:41:18;12.00;99.90
35603;DHT22;21725;50.836;4.368;2023-03-20T23:44:20;12.30;99.90
35603;DHT22;21725;50.836;4.368;2023-03-20T23:47:23;12.40;99.90
35603;DHT22;21725;50.836;4.368;2023-03-20T23:50:27;12.50;99.90
35603;DHT22;21725;50.836;4.368;2023-03-20T23:53:31;12.60;99.90